createdAt,value
2019-01-23T00:00:15.739Z,37.60
2019-01-23T00:02:43.930Z,37.00
2019-01-23T00:05:12.126Z,39.17
2019-01-23T00:07:40.330Z,35.47
2019-01-23T00:10:08.537Z,38.40
2019-01-23T00:12:36.748Z,36.80
2019-01-23T00:15:06.886Z,33.83
2019-01-23T00:17:35.108Z,37.20
2019-01-23T00:20:04.148Z,35.97
2019-01-23T00:22:32.342Z,37.57
2019-01-23T00:25:00.558Z,38.00
2019-01-23T00:27:28.772Z,37.70
2019-01-23T00:29:56.967Z,37.77
2019-01-23T00:32:25.178Z,40.30
2019-01-23T00:34:53.403Z,38.07
2019-01-23T00:37:21.616Z,36.73
2019-01-23T00:39:49.815Z,36.67
2019-01-23T00:42:18.028Z,36.13
2019-01-23T00:44:46.223Z,38.43
2019-01-23T00:47:14.419Z,35.57
2019-01-23T00:49:42.627Z,36.43
2019-01-23T00:52:10.840Z,35.90
2019-01-23T00:54:39.110Z,37.20
2019-01-23T00:57:07.323Z,35.47
2019-01-23T00:59:35.541Z,34.37
2019-01-23T01:02:03.808Z,35.00
2019-01-23T01:04:32.023Z,35.70
2019-01-23T01:07:00.236Z,35.60
2019-01-23T01:09:28.434Z,33.27
2019-01-23T01:11:56.643Z,39.87
2019-01-23T01:14:24.858Z,35.33
2019-01-23T01:16:53.055Z,36.97
2019-01-23T01:19:21.260Z,38.30
2019-01-23T01:21:49.471Z,34.20
2019-01-23T01:24:17.684Z,37.07
2019-01-23T01:26:45.911Z,37.33
2019-01-23T01:29:14.103Z,34.57
2019-01-23T01:31:42.327Z,36.70
2019-01-23T01:34:10.527Z,37.70
2019-01-23T01:36:38.759Z,37.73
2019-01-23T01:39:07.940Z,38.93
2019-01-23T01:41:36.140Z,37.03
2019-01-23T01:44:04.347Z,35.87
2019-01-23T01:46:32.562Z,38.17
2019-01-23T01:49:00.760Z,35.13
2019-01-23T01:51:28.960Z,37.97
2019-01-23T01:53:57.167Z,37.30
2019-01-23T01:56:25.379Z,38.53
2019-01-23T01:58:53.583Z,35.97
2019-01-23T02:01:21.787Z,42.93
2019-01-23T02:03:49.995Z,38.50
2019-01-23T02:06:18.207Z,36.17
2019-01-23T02:08:46.412Z,39.13
2019-01-23T02:11:14.611Z,36.07
2019-01-23T02:13:42.827Z,37.40
2019-01-23T02:16:11.019Z,37.37
2019-01-23T02:18:39.226Z,37.97
2019-01-23T02:21:07.507Z,32.77
2019-01-23T02:23:35.703Z,39.07
2019-01-23T02:26:03.918Z,37.73
2019-01-23T02:28:32.123Z,34.07
2019-01-23T02:31:00.318Z,37.23
2019-01-23T02:33:28.527Z,40.40
2019-01-23T02:35:56.727Z,35.90
2019-01-23T02:38:24.944Z,39.77
2019-01-23T02:40:53.163Z,38.90
2019-01-23T02:43:21.367Z,35.37
2019-01-23T02:45:49.574Z,37.23
2019-01-23T02:48:17.763Z,36.70
2019-01-23T02:50:45.972Z,37.70
2019-01-23T02:53:14.170Z,37.37
2019-01-23T02:55:42.379Z,37.40
2019-01-23T02:58:10.575Z,36.70
2019-01-23T03:00:38.787Z,33.23
2019-01-23T03:03:06.988Z,36.70
2019-01-23T03:05:35.200Z,35.17
2019-01-23T03:08:03.404Z,36.23
2019-01-23T03:10:31.623Z,33.80
2019-01-23T03:12:59.828Z,35.23
2019-01-23T03:15:28.048Z,37.10
2019-01-23T03:17:56.260Z,34.13
2019-01-23T03:20:24.471Z,35.17
2019-01-23T03:22:52.688Z,32.90
2019-01-23T03:25:20.892Z,33.63
2019-01-23T03:27:49.104Z,32.50
2019-01-23T03:30:19.804Z,31.13
2019-01-23T03:32:48.020Z,35.87
2019-01-23T03:35:16.231Z,36.03
2019-01-23T03:37:44.422Z,34.80
2019-01-23T03:40:18.109Z,33.30
2019-01-23T03:42:46.309Z,34.07
2019-01-23T03:45:15.762Z,32.80
2019-01-23T03:47:43.976Z,33.07
2019-01-23T03:50:14.672Z,35.70
2019-01-23T03:52:42.866Z,33.03
2019-01-23T03:55:12.521Z,36.33
2019-01-23T03:57:40.714Z,37.50
2019-01-23T04:00:14.485Z,34.63
2019-01-23T04:02:42.683Z,38.33
2019-01-23T04:05:11.263Z,35.73
2019-01-23T04:07:39.463Z,32.47
2019-01-23T04:10:10.572Z,38.60
2019-01-23T04:12:38.779Z,36.03
2019-01-23T04:15:08.836Z,37.03
2019-01-23T04:17:37.030Z,36.70
2019-01-23T04:20:08.643Z,36.63
2019-01-23T04:22:36.840Z,35.13
2019-01-23T04:25:07.292Z,35.13
2019-01-23T04:27:35.511Z,37.70
2019-01-23T04:30:06.262Z,36.13
2019-01-23T04:32:34.469Z,38.03
2019-01-23T04:35:02.755Z,38.23
2019-01-23T04:37:30.947Z,36.60
2019-01-23T04:39:59.159Z,35.67
2019-01-23T04:42:27.360Z,35.97
2019-01-23T04:44:55.571Z,37.10
2019-01-23T04:47:23.768Z,39.87
2019-01-23T04:49:51.982Z,36.73
2019-01-23T04:52:21.844Z,35.60
2019-01-23T04:54:50.055Z,36.87
2019-01-23T04:57:18.253Z,37.57
2019-01-23T04:59:46.874Z,33.73
2019-01-23T05:02:15.347Z,37.27
2019-01-23T05:04:43.560Z,36.53
2019-01-23T05:07:11.782Z,37.43
2019-01-23T05:09:39.979Z,34.33
2019-01-23T05:12:08.177Z,38.43
2019-01-23T05:14:36.387Z,33.70
2019-01-23T05:17:04.580Z,33.60
2019-01-23T05:19:32.796Z,39.03
2019-01-23T05:22:00.998Z,36.03
2019-01-23T05:24:29.201Z,36.03
2019-01-23T05:26:57.406Z,35.13
2019-01-23T05:29:25.621Z,33.80
2019-01-23T05:31:53.827Z,41.13
2019-01-23T05:34:22.040Z,35.23
2019-01-23T05:36:50.247Z,34.00
2019-01-23T05:39:18.459Z,38.30
2019-01-23T05:41:46.659Z,40.97
2019-01-23T05:44:14.899Z,39.50
2019-01-23T05:46:43.115Z,35.20
2019-01-23T05:49:11.312Z,39.80
2019-01-23T05:51:39.515Z,29.00
2019-01-23T05:54:07.731Z,43.33
2019-01-23T05:56:36.039Z,36.37
2019-01-23T05:59:05.883Z,32.73
2019-01-23T06:01:34.087Z,38.53
2019-01-23T06:04:02.295Z,35.03
2019-01-23T06:06:30.511Z,39.13
2019-01-23T06:08:58.714Z,38.40
2019-01-23T06:11:26.911Z,37.90
2019-01-23T06:13:55.119Z,36.27
2019-01-23T06:16:23.320Z,38.77
2019-01-23T06:18:51.531Z,39.60
2019-01-23T06:21:19.727Z,40.07
2019-01-23T06:23:47.931Z,31.83
2019-01-23T06:26:16.128Z,30.87
2019-01-23T06:28:44.347Z,40.40
2019-01-23T06:31:12.555Z,38.73
2019-01-23T06:33:40.769Z,33.03
2019-01-23T06:36:08.967Z,35.17
2019-01-23T06:38:37.167Z,38.40
2019-01-23T06:41:05.383Z,36.77
2019-01-23T06:43:33.583Z,41.17
2019-01-23T06:46:01.791Z,35.20
2019-01-23T06:48:29.999Z,26.27
2019-01-23T06:50:58.212Z,32.40
2019-01-23T06:53:26.419Z,40.33
2019-01-23T06:55:54.619Z,33.57
2019-01-23T06:58:22.832Z,37.07
2019-01-23T07:00:51.030Z,32.60
2019-01-23T07:03:19.239Z,36.77
2019-01-23T07:05:47.439Z,27.13
2019-01-23T07:08:15.665Z,21.93
2019-01-23T07:10:43.864Z,26.90
2019-01-23T07:13:12.059Z,30.03
2019-01-23T07:15:40.268Z,28.67
2019-01-23T07:18:08.463Z,21.60
2019-01-23T07:20:36.658Z,26.60
2019-01-23T07:23:04.871Z,31.57
2019-01-23T07:25:33.067Z,34.50
2019-01-23T07:28:01.279Z,35.30
2019-01-23T07:30:48.907Z,34.53
2019-01-23T07:33:17.115Z,32.60
2019-01-23T07:35:45.316Z,34.03
2019-01-23T07:38:13.522Z,26.47
2019-01-23T07:40:41.727Z,26.77
2019-01-23T07:43:09.927Z,18.97
2019-01-23T07:45:38.611Z,27.27
2019-01-23T07:48:06.808Z,27.43
2019-01-23T07:50:35.594Z,29.63
2019-01-23T07:53:03.787Z,30.07
2019-01-23T07:55:31.995Z,27.17
2019-01-23T07:58:00.201Z,27.50
2019-01-23T08:00:31.505Z,34.43
2019-01-23T08:02:58.336Z,31.67
2019-01-23T08:05:26.536Z,32.57
2019-01-23T08:07:54.807Z,31.27
2019-01-23T08:10:23.159Z,31.00
2019-01-23T08:12:51.372Z,22.67
2019-01-23T08:15:25.774Z,26.60
2019-01-23T08:17:53.976Z,30.37
2019-01-23T08:20:24.119Z,33.50
2019-01-23T08:22:52.319Z,23.73
2019-01-23T08:25:20.594Z,32.47
2019-01-23T08:27:48.817Z,19.03
2019-01-23T08:30:19.616Z,24.87
2019-01-23T08:32:47.822Z,26.00
2019-01-23T08:35:16.324Z,24.80
2019-01-23T08:37:44.491Z,30.60
2019-01-23T08:40:14.435Z,25.90
2019-01-23T08:42:42.631Z,27.27
2019-01-23T08:45:31.882Z,33.40
2019-01-23T08:48:00.083Z,30.20
2019-01-23T08:50:33.620Z,30.60
2019-01-23T08:53:01.835Z,27.97
2019-01-23T08:55:30.039Z,44.33
2019-01-23T08:57:58.251Z,32.87
2019-01-23T09:00:26.452Z,32.97
2019-01-23T09:02:54.656Z,27.93
2019-01-23T09:05:22.851Z,35.83
2019-01-23T09:07:51.056Z,41.63
2019-01-23T09:10:21.958Z,50.53
2019-01-23T09:12:50.168Z,26.23
2019-01-23T09:15:18.359Z,26.17
2019-01-23T09:17:46.565Z,29.40
2019-01-23T09:20:17.543Z,26.90
2019-01-23T09:22:45.749Z,29.37
2019-01-23T09:25:18.810Z,33.57
2019-01-23T09:27:47.007Z,25.73
2019-01-23T09:30:30.143Z,29.23
2019-01-23T09:33:13.546Z,27.77
2019-01-23T09:36:03.019Z,22.43
2019-01-23T09:38:49.647Z,26.93
2019-01-23T09:41:26.920Z,26.50
2019-01-23T09:44:14.562Z,26.83
2019-01-23T09:47:06.536Z,28.07
2019-01-23T09:49:53.067Z,28.67
2019-01-23T09:52:39.735Z,23.00
2019-01-23T09:55:10.082Z,28.33
2019-01-23T09:57:57.701Z,30.10
2019-01-23T10:00:27.843Z,27.63
2019-01-23T10:02:56.047Z,27.33
2019-01-23T10:05:24.231Z,29.53
2019-01-23T10:07:52.442Z,29.13
2019-01-23T10:10:40.059Z,27.40
2019-01-23T10:13:08.263Z,31.17
2019-01-23T10:15:42.526Z,30.73
2019-01-23T10:18:10.731Z,28.77
2019-01-23T10:20:38.919Z,28.17
2019-01-23T10:23:07.112Z,29.00
2019-01-23T10:25:35.317Z,30.10
2019-01-23T10:28:03.503Z,30.53
2019-01-23T10:30:31.695Z,31.93
2019-01-23T10:32:59.898Z,28.47
2019-01-23T10:35:28.083Z,25.20
2019-01-23T10:37:56.271Z,25.03
2019-01-23T10:40:24.470Z,27.73
2019-01-23T10:42:52.659Z,27.73
2019-01-23T10:45:20.863Z,23.70
2019-01-23T10:47:55.894Z,30.17
2019-01-23T10:50:18.960Z,26.67
2019-01-23T10:52:47.175Z,23.43
2019-01-23T10:55:15.367Z,28.60
2019-01-23T10:57:43.550Z,25.40
2019-01-23T11:00:41.959Z,26.40
2019-01-23T11:03:10.502Z,25.70
2019-01-23T11:05:39.695Z,27.27
2019-01-23T11:08:07.882Z,30.03
2019-01-23T11:10:36.079Z,19.97
2019-01-23T11:13:04.273Z,28.90
2019-01-23T11:15:32.476Z,29.70
2019-01-23T11:18:00.667Z,21.37
2019-01-23T11:20:28.860Z,25.40
2019-01-23T11:22:57.063Z,29.07
2019-01-23T11:25:25.252Z,21.70
2019-01-23T11:27:53.451Z,27.83
2019-01-23T11:30:24.444Z,28.50
2019-01-23T11:32:52.787Z,26.87
2019-01-23T11:35:20.980Z,29.73
2019-01-23T11:37:49.187Z,24.57
2019-01-23T11:40:26.027Z,28.40
2019-01-23T11:42:54.232Z,29.73
2019-01-23T11:45:22.419Z,20.37
2019-01-23T11:47:50.611Z,29.57
2019-01-23T11:50:21.961Z,27.80
2019-01-23T11:52:48.791Z,28.10
2019-01-23T11:55:16.990Z,26.53
2019-01-23T11:57:45.191Z,26.43
2019-01-23T12:00:16.123Z,27.53
2019-01-23T12:02:44.340Z,29.17
2019-01-23T12:05:14.867Z,27.47
2019-01-23T12:07:43.060Z,27.60
2019-01-23T12:10:13.995Z,27.83
2019-01-23T12:12:42.188Z,31.03
2019-01-23T12:15:13.033Z,25.67
2019-01-23T12:17:41.227Z,24.73
2019-01-23T12:20:10.263Z,27.83
2019-01-23T12:22:38.459Z,28.40
2019-01-23T12:25:08.991Z,27.23
2019-01-23T12:27:37.191Z,28.53
2019-01-23T12:30:23.755Z,30.17
2019-01-23T12:32:51.956Z,30.17
2019-01-23T12:35:20.148Z,28.03
2019-01-23T12:37:48.349Z,36.70
2019-01-23T12:40:16.901Z,28.23
2019-01-23T12:42:45.106Z,38.13
2019-01-23T12:45:18.580Z,41.10
2019-01-23T12:47:46.779Z,31.53
2019-01-23T12:50:17.806Z,30.80
2019-01-23T12:52:45.995Z,33.60
2019-01-23T12:55:14.195Z,29.90
2019-01-23T12:57:42.390Z,28.97
2019-01-23T13:00:14.036Z,29.63
2019-01-23T13:02:42.234Z,32.90
2019-01-23T13:05:11.472Z,30.80
2019-01-23T13:07:39.663Z,31.40
2019-01-23T13:10:13.237Z,29.50
2019-01-23T13:12:41.459Z,28.20
2019-01-23T13:15:12.984Z,30.07
2019-01-23T13:17:41.175Z,27.73
2019-01-23T13:20:12.417Z,28.20
2019-01-23T13:22:40.608Z,30.03
2019-01-23T13:25:12.051Z,29.23
2019-01-23T13:27:40.254Z,27.70
2019-01-23T13:30:11.784Z,27.50
2019-01-23T13:32:39.979Z,33.97
2019-01-23T13:35:11.215Z,27.87
2019-01-23T13:37:39.418Z,28.37
2019-01-23T13:40:21.979Z,26.83
2019-01-23T13:42:50.754Z,28.37
2019-01-23T13:45:18.939Z,27.10
2019-01-23T13:47:47.132Z,28.03
2019-01-23T13:50:15.339Z,28.87
2019-01-23T13:52:43.523Z,28.23
2019-01-23T13:55:14.579Z,29.90
2019-01-23T13:57:42.783Z,27.63
2019-01-23T14:00:23.111Z,29.43
2019-01-23T14:02:51.299Z,26.67
2019-01-23T14:05:19.498Z,30.07
2019-01-23T14:07:47.679Z,28.80
2019-01-23T14:10:17.243Z,28.00
2019-01-23T14:12:45.431Z,31.33
2019-01-23T14:15:19.707Z,28.23
2019-01-23T14:17:47.916Z,27.57
2019-01-23T14:20:16.755Z,28.37
2019-01-23T14:22:44.948Z,26.43
2019-01-23T14:25:15.278Z,26.90
2019-01-23T14:27:43.475Z,25.70
2019-01-23T14:30:24.043Z,26.30
2019-01-23T14:32:52.243Z,26.33
2019-01-23T14:35:20.443Z,27.33
2019-01-23T14:37:48.636Z,26.73
2019-01-23T14:40:16.831Z,26.20
2019-01-23T14:42:45.031Z,25.40
2019-01-23T14:45:17.135Z,26.63
2019-01-23T14:47:45.324Z,26.73
2019-01-23T14:50:15.372Z,27.73
2019-01-23T14:52:44.509Z,25.50
2019-01-23T14:55:12.712Z,24.47
2019-01-23T14:57:40.903Z,25.27
2019-01-23T15:00:15.007Z,26.97
2019-01-23T15:02:43.199Z,25.97
2019-01-23T15:05:11.403Z,25.73
2019-01-23T15:07:39.596Z,26.63
2019-01-23T15:10:16.211Z,25.80
2019-01-23T15:12:44.415Z,26.43
2019-01-23T15:15:12.598Z,26.17
2019-01-23T15:17:40.803Z,25.57
2019-01-23T15:20:15.087Z,27.70
2019-01-23T15:22:43.291Z,28.83
2019-01-23T15:25:11.499Z,29.20
2019-01-23T15:27:39.687Z,27.53
2019-01-23T15:30:11.291Z,29.13
2019-01-23T15:32:39.484Z,28.00
2019-01-23T15:35:09.615Z,29.47
2019-01-23T15:37:37.819Z,30.57
2019-01-23T15:40:15.336Z,28.77
2019-01-23T15:42:43.537Z,29.67
2019-01-23T15:45:11.728Z,29.50
2019-01-23T15:47:39.916Z,28.80
2019-01-23T15:50:14.238Z,28.17
2019-01-23T15:52:42.432Z,30.40
2019-01-23T15:55:13.176Z,30.10
2019-01-23T15:57:41.364Z,32.27
2019-01-23T16:00:15.429Z,28.70
2019-01-23T16:02:43.632Z,29.83
2019-01-23T16:05:11.824Z,27.47
2019-01-23T16:07:40.031Z,31.07
2019-01-23T16:10:11.479Z,28.30
2019-01-23T16:12:39.679Z,27.40
2019-01-23T16:15:10.923Z,29.93
2019-01-23T16:17:39.124Z,28.60
2019-01-23T16:20:09.874Z,30.10
2019-01-23T16:22:38.149Z,29.17
2019-01-23T16:25:09.588Z,29.50
2019-01-23T16:27:38.366Z,28.30
2019-01-23T16:30:09.824Z,29.73
2019-01-23T16:32:38.039Z,31.43
2019-01-23T16:35:08.475Z,32.77
2019-01-23T16:37:36.683Z,31.03
2019-01-23T16:40:07.816Z,28.70
2019-01-23T16:42:36.022Z,31.17
2019-01-23T16:45:07.721Z,32.17
2019-01-23T16:47:35.920Z,31.90
2019-01-23T16:50:07.389Z,31.10
2019-01-23T16:52:35.579Z,31.97
2019-01-23T16:55:06.084Z,32.13
2019-01-23T16:57:34.280Z,31.17
2019-01-23T17:00:02.485Z,31.87
2019-01-23T17:02:30.683Z,32.47
2019-01-23T17:04:58.883Z,31.03
2019-01-23T17:07:27.093Z,31.03
2019-01-23T17:09:55.288Z,26.00
2019-01-23T17:12:23.504Z,28.83
2019-01-23T17:14:51.708Z,30.13
2019-01-23T17:17:19.899Z,29.23
2019-01-23T17:19:48.108Z,30.63
2019-01-23T17:22:16.312Z,32.37
2019-01-23T17:24:44.507Z,31.27
2019-01-23T17:27:12.708Z,27.57
2019-01-23T17:29:40.976Z,30.67
2019-01-23T17:32:09.183Z,28.23
2019-01-23T17:34:37.375Z,30.40
2019-01-23T17:37:05.583Z,31.30
2019-01-23T17:39:33.784Z,30.73
2019-01-23T17:42:02.459Z,31.13
2019-01-23T17:44:30.672Z,30.07
2019-01-23T17:46:59.131Z,29.33
2019-01-23T17:49:27.332Z,30.37
2019-01-23T17:51:55.546Z,29.07
2019-01-23T17:54:23.739Z,31.00
2019-01-23T17:56:51.935Z,27.03
2019-01-23T17:59:20.143Z,25.53
2019-01-23T18:01:48.338Z,29.03
2019-01-23T18:04:16.540Z,28.50
2019-01-23T18:06:44.735Z,27.27
2019-01-23T18:09:12.949Z,27.70
2019-01-23T18:11:41.139Z,28.40
2019-01-23T18:14:09.354Z,26.90
2019-01-23T18:16:37.559Z,26.80
2019-01-23T18:19:05.767Z,25.80
2019-01-23T18:21:33.964Z,29.33
2019-01-23T18:24:02.167Z,28.07
2019-01-23T18:26:30.363Z,28.90
2019-01-23T18:28:58.583Z,28.90
2019-01-23T18:31:28.815Z,28.60
2019-01-23T18:34:00.280Z,30.43
2019-01-23T18:36:46.827Z,27.27
2019-01-23T18:39:35.784Z,29.80
2019-01-23T18:42:30.732Z,28.73
2019-01-23T18:45:02.364Z,27.37
2019-01-23T18:47:36.563Z,28.77
2019-01-23T18:50:41.379Z,29.47
2019-01-23T18:53:10.534Z,29.70
2019-01-23T18:55:38.874Z,30.13
2019-01-23T18:58:07.084Z,31.40
2019-01-23T19:00:35.279Z,31.23
2019-01-23T19:03:07.123Z,31.20
2019-01-23T19:05:33.417Z,32.00
2019-01-23T19:08:01.616Z,32.77
2019-01-23T19:10:29.814Z,32.40
2019-01-23T19:12:58.022Z,31.80
2019-01-23T19:15:26.219Z,33.00
2019-01-23T19:17:54.419Z,33.77
2019-01-23T19:20:22.631Z,33.27
2019-01-23T19:22:50.853Z,32.57
2019-01-23T19:25:19.036Z,34.00
2019-01-23T19:27:47.231Z,31.43
2019-01-23T19:30:18.349Z,32.67
2019-01-23T19:32:46.556Z,34.00
2019-01-23T19:35:15.035Z,34.00
2019-01-23T19:37:43.241Z,34.90
2019-01-23T19:40:11.785Z,33.60
2019-01-23T19:42:39.987Z,31.33
2019-01-23T19:45:14.316Z,32.90
2019-01-23T19:47:42.523Z,31.87
2019-01-23T19:50:12.543Z,34.27
2019-01-23T19:52:40.747Z,35.03
2019-01-23T19:55:11.687Z,31.67
2019-01-23T19:57:39.895Z,33.23
2019-01-23T20:00:11.404Z,31.63
2019-01-23T20:02:39.612Z,32.83
2019-01-23T20:05:11.320Z,31.43
2019-01-23T20:07:39.530Z,32.10
2019-01-23T20:10:14.509Z,32.97
2019-01-23T20:12:42.811Z,31.30
2019-01-23T20:15:14.512Z,31.77
2019-01-23T20:17:42.725Z,29.50
2019-01-23T20:20:13.060Z,30.90
2019-01-23T20:22:41.400Z,31.87
2019-01-23T20:25:12.847Z,31.53
2019-01-23T20:27:41.052Z,34.00
2019-01-23T20:30:18.084Z,27.87
2019-01-23T20:32:46.275Z,31.83
2019-01-23T20:35:14.543Z,33.17
2019-01-23T20:37:43.634Z,32.07
2019-01-23T20:40:13.387Z,30.63
2019-01-23T20:42:41.847Z,33.97
2019-01-23T20:45:12.908Z,33.67
2019-01-23T20:47:41.176Z,32.80
2019-01-23T20:50:20.811Z,34.20
2019-01-23T20:52:49.007Z,33.57
2019-01-23T20:55:17.205Z,33.77
2019-01-23T20:57:45.415Z,31.30
2019-01-23T21:00:19.419Z,32.27
2019-01-23T21:02:47.632Z,34.27
2019-01-23T21:05:15.831Z,31.07
2019-01-23T21:07:44.043Z,33.10
2019-01-23T21:10:14.680Z,33.40
2019-01-23T21:12:42.876Z,34.97
2019-01-23T21:15:22.573Z,32.87
2019-01-23T21:17:50.767Z,32.47
2019-01-23T21:20:18.980Z,33.57
2019-01-23T21:22:47.247Z,33.30
2019-01-23T21:25:15.531Z,34.60
2019-01-23T21:27:44.877Z,33.80
2019-01-23T21:30:27.131Z,34.70
2019-01-23T21:32:55.331Z,34.63
2019-01-23T21:35:23.526Z,35.83
2019-01-23T21:37:51.736Z,31.73
2019-01-23T21:40:25.017Z,38.87
2019-01-23T21:42:53.291Z,39.87
2019-01-23T21:45:21.491Z,35.83
2019-01-23T21:47:50.943Z,35.53
2019-01-23T21:50:20.877Z,35.27
2019-01-23T21:52:49.071Z,37.03
2019-01-23T21:55:19.327Z,36.27
2019-01-23T21:57:47.539Z,35.50
2019-01-23T22:00:54.800Z,36.67
2019-01-23T22:03:23.007Z,36.50
2019-01-23T22:05:51.215Z,35.17
2019-01-23T22:08:19.415Z,37.20
2019-01-23T22:10:47.624Z,37.57
2019-01-23T22:13:15.823Z,38.87
2019-01-23T22:15:44.035Z,35.70
2019-01-23T22:18:12.253Z,36.03
2019-01-23T22:20:40.492Z,37.40
2019-01-23T22:23:08.727Z,36.70
2019-01-23T22:25:36.936Z,36.93
2019-01-23T22:28:05.131Z,36.33
2019-01-23T22:30:34.228Z,41.20
2019-01-23T22:33:02.464Z,44.40
2019-01-23T22:35:30.700Z,38.93
2019-01-23T22:37:58.908Z,37.27
2019-01-23T22:40:27.123Z,37.80
2019-01-23T22:42:55.323Z,37.67
2019-01-23T22:45:23.543Z,36.93
2019-01-23T22:47:51.755Z,35.93
2019-01-23T22:50:21.993Z,35.67
2019-01-23T22:52:50.188Z,38.93
2019-01-23T22:55:18.477Z,35.47
2019-01-23T22:57:46.687Z,35.50
2019-01-23T23:00:42.632Z,38.17
2019-01-23T23:03:12.587Z,36.83
2019-01-23T23:05:40.787Z,38.67
2019-01-23T23:08:08.996Z,36.67
2019-01-23T23:10:37.203Z,38.63
2019-01-23T23:13:05.411Z,37.80
2019-01-23T23:15:34.182Z,35.73
2019-01-23T23:18:02.399Z,38.13
2019-01-23T23:20:30.595Z,37.77
2019-01-23T23:22:58.798Z,41.00
2019-01-23T23:25:27.008Z,37.53
2019-01-23T23:27:55.212Z,40.37
2019-01-23T23:30:24.235Z,40.20
2019-01-23T23:32:52.439Z,41.03
2019-01-23T23:35:20.667Z,41.17
2019-01-23T23:37:48.863Z,40.73
2019-01-23T23:40:17.068Z,40.10
2019-01-23T23:42:45.282Z,40.10
2019-01-23T23:45:17.754Z,41.17
2019-01-23T23:47:45.968Z,40.20
2019-01-23T23:50:15.407Z,41.80
2019-01-23T23:52:43.611Z,39.23
2019-01-23T23:55:13.061Z,41.80
2019-01-23T23:57:41.269Z,38.30
